首页
METAR-TAF:

METAR-TAF

机场 :

马杜赖, 印度

纬度: 09-50-01N, 经度: 078-05-22E, 海拔: 136米

当前天气观测

该预报发布于1小时和1分钟前的00:00 UTC
风速4节,风向东北
温度 27°C
湿度 79%
气压 1008 hPa
能見度: 5000
霾,

METAR: VOMD 170000Z 04004KT 5000 HZ NSC 27/23 Q1008 NOSIG

时间: 06:31 (01:01 UTC)

预报

该预报发布于2小时和1分钟前的23:00 UTC
预报有效从17日的 00点(UTC)到 18日的 06点(UTC)
风速10节,风向西
能見度: 5000
少量云层高于2000英尺
成为
从 17日的 00点(UTC)到 17日的 01点(UTC)
能見度: 6000
成为
从 17日的 12点(UTC)到 17日的 13点(UTC)
能見度: 5000
短暂存在
从 17日的 12点(UTC)到 17日的 18点(UTC)
能見度: 3000
少量云层高于1800英尺
多云层高于8000英尺
成为
从 18日的 00点(UTC)到 18日的 01点(UTC)
能見度: 6000

TAF: VOMD 162300Z 1700/1806 27010KT 5000 HZ FEW020 BECMG 1700/1701 6000 BECMG 1712/1713 5000 HZ TEMPO 1712/1718 3000 TSRA/RA FEW018 FEW025TCU/CB BKN080 BECMG 1800/1801 6000

超过4000个机场的气象观测和天气预报(METAR&TAF报告)。

可查询的气象台以黄色和红色小点在地图上表示。

将鼠标移到小点上方,可查看气象台名称。

然后点击查看天气观测和预报。

如需切换地图:点击带黑十字的绿色按钮放大地图;点击带横线的绿色按钮缩小地图;或者点击绿色箭头查看邻近地区的地图。


METAR-TAF: